Time;durP1;ratioP1;P1;durP2;ratioP2;P2;SDS_P1;SDS_P2;PMS_P1;PMS_P2;Temp;Humidity;BMP_temperature;BMP_pressure;BME280_temperature;BME280_humidity;BME280_pressure;Samples;Min_cycle;Max_cycle;Signal;HPM_P1;HPM_P2
2022/04/20 00:02:12;;;;;;;11.02;9.93;;;4.10;99.90;;;;;;5053786;28;20265;-89
2022/04/20 00:04:40;;;;;;;9.48;8.68;;;4.10;99.90;;;;;;5053834;28;20220;-90
2022/04/20 00:07:09;;;;;;;11.02;9.50;;;4.00;99.90;;;;;;5053752;28;20225;-89
2022/04/20 00:09:38;;;;;;;10.13;9.23;;;4.00;99.90;;;;;;5053575;28;20232;-89
2022/04/20 00:12:09;;;;;;;9.13;8.32;;;4.00;99.90;;;;;;5053201;28;20232;-89
2022/04/20 00:14:38;;;;;;;10.63;9.60;;;4.00;99.90;;;;;;5053572;28;20209;-89
2022/04/20 00:17:06;;;;;;;9.05;8.25;;;4.10;99.90;;;;;;5053470;28;20214;-89
2022/04/20 00:19:34;;;;;;;8.85;8.05;;;4.00;99.90;;;;;;5053584;28;20202;-89
2022/04/20 00:22:03;;;;;;;9.77;8.73;;;4.10;99.90;;;;;;5052944;28;20297;-89
2022/04/20 00:24:31;;;;;;;8.27;7.57;;;4.00;99.90;;;;;;5053783;28;20299;-90
2022/04/20 00:27:00;;;;;;;9.27;8.38;;;4.10;99.90;;;;;;5053744;28;20224;-89
2022/04/20 00:29:30;;;;;;;8.15;7.45;;;4.10;99.90;;;;;;5053429;28;20209;-88
2022/04/20 00:31:59;;;;;;;8.57;7.35;;;4.10;99.90;;;;;;5053171;28;20320;-89
2022/04/20 00:34:27;;;;;;;8.82;8.05;;;4.10;99.90;;;;;;5053229;28;20205;-89
2022/04/20 00:36:56;;;;;;;7.47;6.88;;;4.10;99.90;;;;;;5052262;28;20198;-89
2022/04/20 00:39:24;;;;;;;9.32;8.43;;;4.10;99.90;;;;;;5053646;28;20251;-89
2022/04/20 00:41:53;;;;;;;8.50;7.70;;;4.10;99.90;;;;;;5052243;28;20308;-90
2022/04/20 00:44:22;;;;;;;7.93;7.13;;;4.10;99.90;;;;;;5053496;28;20296;-89
2022/04/20 00:46:53;;;;;;;7.95;7.18;;;4.10;99.90;;;;;;5052953;28;20313;-89
2022/04/20 00:49:22;;;;;;;7.65;7.05;;;4.10;99.90;;;;;;5053051;28;20205;-89
2022/04/20 00:51:56;;;;;;;8.55;7.53;;;4.10;99.90;;;;;;5052801;28;20268;-89
2022/04/20 00:54:24;;;;;;;7.38;6.72;;;4.10;99.90;;;;;;5053351;28;20236;-88
2022/04/20 00:56:53;;;;;;;7.68;7.00;;;4.10;99.90;;;;;;5053662;28;20202;-92
2022/04/20 00:59:24;;;;;;;7.82;7.03;;;4.10;99.90;;;;;;5053422;28;20228;-90
2022/04/20 01:01:55;;;;;;;8.77;7.88;;;4.10;99.90;;;;;;5052622;28;20248;-90
2022/04/20 01:04:23;;;;;;;7.65;6.95;;;4.10;99.90;;;;;;5052952;28;20201;-90
2022/04/20 01:06:52;;;;;;;7.07;6.43;;;4.10;99.90;;;;;;5053333;28;20209;-90
2022/04/20 01:09:20;;;;;;;8.60;7.75;;;4.00;99.90;;;;;;5053182;28;20209;-90
2022/04/20 01:11:51;;;;;;;8.85;7.97;;;4.00;99.90;;;;;;5053533;28;20225;-89
2022/04/20 01:14:20;;;;;;;7.47;6.72;;;4.00;99.90;;;;;;5053360;28;20209;-90
2022/04/20 01:16:48;;;;;;;7.55;6.95;;;4.00;99.90;;;;;;5052578;28;20229;-90
2022/04/20 01:19:19;;;;;;;6.93;6.43;;;4.00;99.90;;;;;;5052156;28;20308;-90
2022/04/20 01:21:49;;;;;;;7.72;6.95;;;4.00;99.90;;;;;;5052580;28;20299;-90
2022/04/20 01:24:17;;;;;;;8.10;7.43;;;4.00;99.90;;;;;;5052881;28;20209;-89
2022/04/20 01:26:46;;;;;;;7.55;6.95;;;4.00;99.90;;;;;;5053045;28;20209;-89
2022/04/20 01:29:16;;;;;;;7.85;7.25;;;4.00;99.90;;;;;;5052573;28;20233;-89
2022/04/20 01:31:44;;;;;;;8.18;7.47;;;4.00;99.90;;;;;;5052422;28;20221;-89
2022/04/20 01:34:13;;;;;;;7.30;6.70;;;4.00;99.90;;;;;;5052843;28;20226;-89
2022/04/20 01:36:41;;;;;;;7.03;6.43;;;4.00;99.90;;;;;;5053260;28;20296;-88
2022/04/20 01:39:12;;;;;;;6.93;6.22;;;4.00;99.90;;;;;;5052452;28;20305;-88
2022/04/20 01:41:40;;;;;;;7.22;6.57;;;4.00;99.90;;;;;;5052178;28;20252;-89
2022/04/20 01:44:09;;;;;;;8.93;7.03;;;4.00;99.90;;;;;;5052555;28;20248;-89
2022/04/20 01:46:38;;;;;;;7.80;7.20;;;4.00;99.90;;;;;;5052788;28;20201;-89
2022/04/20 01:49:07;;;;;;;8.63;7.50;;;4.00;99.90;;;;;;5052543;28;20240;-89
2022/04/20 01:51:54;;;;;;;10.20;7.65;;;3.90;99.90;;;;;;5052778;28;20275;-89
2022/04/20 01:54:24;;;;;;;6.90;6.28;;;4.00;99.90;;;;;;5054263;28;20274;-89
2022/04/20 01:56:53;;;;;;;6.50;6.00;;;4.00;99.90;;;;;;5056589;28;20233;-90
2022/04/20 01:59:21;;;;;;;8.85;8.05;;;4.00;99.90;;;;;;5055876;28;20271;-89
2022/04/20 02:04:35;;;;;;;7.68;6.95;;;4.00;99.90;;;;;;5056463;28;20210;-89
2022/04/20 02:07:04;;;;;;;7.60;6.90;;;4.00;99.90;;;;;;5056070;28;20247;-89
2022/04/20 02:09:34;;;;;;;8.68;7.90;;;3.90;99.90;;;;;;5056246;28;20293;-89
2022/04/20 02:12:03;;;;;;;8.05;7.30;;;4.00;99.90;;;;;;5055985;28;20221;-89
2022/04/20 02:14:33;;;;;;;6.75;6.15;;;3.90;99.90;;;;;;5055775;28;20213;-88
2022/04/20 02:17:01;;;;;;;7.88;7.25;;;3.90;99.90;;;;;;5055898;28;20248;-88
2022/04/20 02:19:30;;;;;;;7.82;7.15;;;3.90;99.90;;;;;;5055683;28;20233;-89
2022/04/20 02:21:59;;;;;;;8.18;7.47;;;3.80;99.90;;;;;;5055570;28;20287;-89
2022/04/20 02:24:27;;;;;;;9.82;8.40;;;3.80;99.90;;;;;;5055919;28;20300;-89
2022/04/20 02:26:57;;;;;;;7.78;7.18;;;3.80;99.90;;;;;;5055836;28;20236;-89
2022/04/20 02:29:25;;;;;;;8.88;8.02;;;3.70;99.90;;;;;;5055955;28;20197;-89
2022/04/20 02:31:54;;;;;;;9.63;8.73;;;3.70;99.90;;;;;;5055303;28;20316;-89
2022/04/20 02:34:22;;;;;;;9.48;8.60;;;3.70;99.90;;;;;;5055936;28;20212;-89
2022/04/20 02:36:51;;;;;;;8.85;8.05;;;3.70;99.90;;;;;;5055368;28;20241;-89
2022/04/20 02:39:20;;;;;;;8.25;7.55;;;3.80;99.90;;;;;;5055176;28;20229;-89
2022/04/20 02:41:48;;;;;;;9.77;8.90;;;3.70;99.90;;;;;;5055283;28;20222;-88
2022/04/20 02:44:18;;;;;;;10.80;9.80;;;3.70;99.90;;;;;;5055595;28;20293;-89
2022/04/20 02:46:47;;;;;;;10.52;9.27;;;3.70;99.90;;;;;;5055726;28;20224;-88
2022/04/20 02:49:16;;;;;;;8.57;7.82;;;3.70;99.90;;;;;;5055385;28;20230;-89
2022/04/20 02:51:44;;;;;;;9.23;8.43;;;3.70;99.90;;;;;;5055364;28;20305;-89
2022/04/20 02:54:12;;;;;;;10.52;9.45;;;3.70;99.90;;;;;;5055042;28;20197;-88
2022/04/20 02:56:41;;;;;;;9.57;8.70;;;3.70;99.90;;;;;;5055185;28;20256;-88
2022/04/20 02:59:09;;;;;;;8.80;8.00;;;3.70;99.90;;;;;;5055270;28;20253;-89
2022/04/20 03:01:40;;;;;;;9.65;8.82;;;3.70;99.90;;;;;;5054939;28;20225;-88
2022/04/20 03:04:08;;;;;;;7.63;7.03;;;3.70;99.90;;;;;;5055197;28;20254;-89
2022/04/20 03:06:37;;;;;;;9.15;8.25;;;3.70;99.90;;;;;;5054800;28;20217;-90
2022/04/20 03:09:05;;;;;;;9.48;8.60;;;3.70;99.90;;;;;;5055078;28;20332;-88
2022/04/20 03:11:34;;;;;;;10.52;9.55;;;3.70;99.90;;;;;;5054586;28;20264;-88
2022/04/20 03:14:02;;;;;;;9.25;8.40;;;3.70;99.90;;;;;;5054601;28;20206;-88
2022/04/20 03:16:32;;;;;;;9.95;9.05;;;3.70;99.90;;;;;;5054645;28;20285;-88
2022/04/20 03:19:02;;;;;;;9.75;8.65;;;3.70;99.90;;;;;;5054736;28;20241;-88
2022/04/20 03:21:31;;;;;;;9.52;8.70;;;3.70;99.90;;;;;;5054494;28;20242;-88
2022/04/20 03:23:59;;;;;;;10.20;9.20;;;3.60;99.90;;;;;;5055242;28;20248;-88
2022/04/20 03:26:28;;;;;;;8.63;8.00;;;3.60;99.90;;;;;;5055026;28;20279;-88
2022/04/20 03:28:56;;;;;;;10.05;9.15;;;3.60;99.90;;;;;;5054804;28;20198;-88
2022/04/20 03:31:26;;;;;;;11.68;9.80;;;3.60;99.90;;;;;;5054485;28;20248;-88
2022/04/20 03:34:01;;;;;;;10.35;9.25;;;3.60;99.90;;;;;;5054306;28;20225;-88
2022/04/20 03:36:30;;;;;;;10.07;9.18;;;3.60;99.90;;;;;;5054528;28;20275;-89
2022/04/20 03:38:59;;;;;;;10.63;8.25;;;3.60;99.90;;;;;;5054338;28;20289;-89
2022/04/20 03:41:27;;;;;;;8.98;8.13;;;3.60;99.90;;;;;;5054403;28;20316;-89
2022/04/20 03:43:55;;;;;;;9.25;8.43;;;3.60;99.90;;;;;;5054056;28;20229;-89
2022/04/20 03:46:24;;;;;;;10.93;9.82;;;3.70;99.90;;;;;;5053980;28;20292;-89
2022/04/20 03:48:52;;;;;;;8.90;8.05;;;3.70;99.90;;;;;;5054104;28;20244;-88
2022/04/20 03:51:22;;;;;;;9.27;8.43;;;3.70;99.90;;;;;;5054013;28;20237;-88
2022/04/20 03:53:51;;;;;;;9.57;8.55;;;3.70;99.90;;;;;;5054162;28;20229;-88
2022/04/20 03:56:19;;;;;;;10.25;9.32;;;3.60;99.90;;;;;;5053833;28;20331;-88
2022/04/20 03:58:48;;;;;;;10.52;9.55;;;3.70;99.90;;;;;;5054179;28;20304;-88
2022/04/20 04:01:16;;;;;;;9.32;8.52;;;3.70;99.90;;;;;;5053496;28;20256;-88
2022/04/20 04:03:45;;;;;;;8.88;8.07;;;3.70;99.90;;;;;;5054234;28;20305;-88
2022/04/20 04:06:13;;;;;;;9.57;8.75;;;3.70;99.90;;;;;;5054112;28;20210;-88
2022/04/20 04:08:43;;;;;;;10.25;9.43;;;3.60;99.90;;;;;;5053785;28;20205;-89
2022/04/20 04:11:12;;;;;;;9.68;8.77;;;3.60;99.90;;;;;;5053054;28;20226;-88
2022/04/20 04:13:40;;;;;;;10.35;9.07;;;3.60;99.90;;;;;;5053904;28;20205;-88
2022/04/20 04:16:09;;;;;;;10.95;9.95;;;3.60;99.90;;;;;;5053220;28;20252;-88
2022/04/20 04:18:37;;;;;;;10.05;9.25;;;3.60;99.90;;;;;;5053594;28;20248;-88
2022/04/20 04:21:05;;;;;;;10.38;9.48;;;3.60;99.90;;;;;;5052871;28;20265;-88
2022/04/20 04:23:34;;;;;;;9.95;9.07;;;3.60;99.90;;;;;;5053251;28;20301;-89
2022/04/20 04:26:04;;;;;;;10.77;9.73;;;3.60;99.90;;;;;;5053564;28;20213;-89
2022/04/20 04:28:32;;;;;;;12.18;10.98;;;3.70;99.90;;;;;;5053529;28;20293;-89
2022/04/20 04:31:00;;;;;;;11.98;10.80;;;3.70;99.90;;;;;;5052892;28;20218;-89
2022/04/20 04:33:29;;;;;;;11.18;10.20;;;3.70;99.90;;;;;;5052990;28;20220;-89
2022/04/20 04:35:57;;;;;;;12.35;11.20;;;3.80;99.90;;;;;;5052784;28;20255;-89
2022/04/20 04:38:25;;;;;;;12.32;11.00;;;3.80;99.90;;;;;;5053182;28;20297;-90
2022/04/20 04:40:54;;;;;;;10.77;9.82;;;3.90;99.90;;;;;;5052728;28;20249;-89
2022/04/20 04:43:25;;;;;;;11.68;10.55;;;3.90;99.90;;;;;;5053382;28;20209;-89
2022/04/20 04:48:40;;;;;;;12.20;11.02;;;3.90;99.90;;;;;;5053255;28;20209;-89
2022/04/20 04:51:10;;;;;;;10.38;9.48;;;3.90;99.90;;;;;;5052613;28;20248;-89
2022/04/20 04:53:39;;;;;;;11.18;10.20;;;4.00;99.90;;;;;;5053086;28;20279;-90
2022/04/20 04:56:11;;;;;;;12.32;11.13;;;4.00;99.90;;;;;;5052747;28;20205;-90
2022/04/20 04:58:41;;;;;;;11.93;10.82;;;4.00;99.90;;;;;;5052798;28;20206;-90
2022/04/20 05:01:09;;;;;;;12.00;10.90;;;4.00;99.90;;;;;;5051976;28;20271;-89
2022/04/20 05:03:38;;;;;;;12.77;11.48;;;4.10;99.90;;;;;;5052641;28;20263;-89
2022/04/20 05:06:06;;;;;;;12.65;11.38;;;4.10;99.90;;;;;;5052811;28;20302;-90
2022/04/20 05:08:35;;;;;;;10.55;9.63;;;4.10;99.90;;;;;;5052764;28;20241;-89
2022/04/20 05:11:03;;;;;;;11.13;10.13;;;4.20;99.90;;;;;;5052492;28;20277;-89
2022/04/20 05:13:31;;;;;;;12.07;11.05;;;4.20;99.90;;;;;;5052510;28;20202;-90
2022/04/20 05:16:01;;;;;;;11.15;10.15;;;4.20;99.90;;;;;;5052843;28;20283;-89
2022/04/20 05:18:30;;;;;;;12.10;10.90;;;4.30;99.90;;;;;;5052590;28;20292;-89
2022/04/20 05:20:58;;;;;;;11.52;10.50;;;4.30;99.90;;;;;;5051977;28;20249;-90
2022/04/20 05:23:26;;;;;;;12.13;10.98;;;4.30;99.90;;;;;;5052315;28;20312;-89
2022/04/20 05:25:55;;;;;;;11.75;10.70;;;4.40;99.90;;;;;;5052623;28;20212;-90
2022/04/20 05:28:23;;;;;;;12.20;10.77;;;4.40;99.90;;;;;;5055720;28;20197;-89
2022/04/20 05:30:52;;;;;;;10.80;9.77;;;4.50;99.90;;;;;;5058921;28;20308;-89
2022/04/20 05:33:22;;;;;;;11.57;10.45;;;4.50;99.90;;;;;;5059147;28;20229;-89
2022/04/20 05:35:50;;;;;;;11.18;10.02;;;4.50;99.90;;;;;;5059323;28;20259;-89
2022/04/20 05:43:49;;;;;;;9.50;8.70;;;4.60;99.90;;;;;;5059366;28;20210;-89
2022/04/20 05:46:18;;;;;;;10.55;9.65;;;4.70;99.90;;;;;;5058754;28;20201;-89
2022/04/20 05:48:47;;;;;;;10.02;9.13;;;4.70;99.90;;;;;;5058790;28;20214;-89
2022/04/20 05:51:16;;;;;;;11.13;10.13;;;4.70;99.90;;;;;;5058757;28;20241;-89
2022/04/20 05:53:44;;;;;;;11.25;9.70;;;4.70;99.90;;;;;;5058488;28;20233;-89
2022/04/20 05:56:13;;;;;;;10.52;9.52;;;4.80;99.90;;;;;;5058948;28;20209;-88
2022/04/20 05:58:42;;;;;;;11.15;10.02;;;4.80;99.90;;;;;;5059087;28;20209;-89
2022/04/20 06:01:10;;;;;;;9.65;8.70;;;4.90;99.90;;;;;;5058301;28;20253;-89
2022/04/20 06:03:39;;;;;;;13.20;9.52;;;4.90;99.90;;;;;;5059158;28;20209;-88
2022/04/20 06:06:09;;;;;;;13.80;11.52;;;5.00;99.90;;;;;;5058877;28;20205;-89
2022/04/20 06:08:37;;;;;;;9.55;8.75;;;5.00;99.90;;;;;;5058817;28;20209;-89
2022/04/20 06:11:05;;;;;;;12.10;10.80;;;5.10;99.90;;;;;;5058530;28;20222;-89
2022/04/20 06:13:34;;;;;;;10.57;9.57;;;5.20;99.90;;;;;;5058825;28;20225;-89
2022/04/20 06:16:06;;;;;;;12.07;9.23;;;5.20;99.90;;;;;;5058647;28;20229;-89
2022/04/20 06:18:34;;;;;;;8.95;8.23;;;5.30;99.90;;;;;;5058734;28;20206;-89
2022/04/20 06:21:05;;;;;;;9.98;8.98;;;5.30;99.90;;;;;;5058352;28;20230;-89
2022/04/20 06:23:35;;;;;;;9.38;8.52;;;5.30;99.90;;;;;;5058829;28;20216;-89
2022/04/20 06:26:04;;;;;;;13.35;10.82;;;5.40;99.90;;;;;;5058358;28;20201;-89
2022/04/20 06:28:32;;;;;;;10.43;9.40;;;5.40;99.90;;;;;;5058810;28;20201;-89
2022/04/20 06:31:01;;;;;;;9.98;8.98;;;5.40;99.90;;;;;;5058695;28;20217;-89
2022/04/20 06:33:29;;;;;;;10.50;9.50;;;5.40;99.90;;;;;;5058265;28;20231;-89
2022/04/20 06:36:00;;;;;;;10.82;9.73;;;5.50;99.90;;;;;;5058662;28;20205;-89
2022/04/20 06:38:29;;;;;;;9.43;8.52;;;5.50;99.90;;;;;;5058692;28;20221;-89
2022/04/20 06:40:59;;;;;;;9.90;9.00;;;5.50;99.90;;;;;;5054482;28;20233;-90
2022/04/20 06:43:32;;;;;;;10.18;9.27;;;5.50;99.90;;;;;;5055737;28;20198;-88
2022/04/20 06:46:00;;;;;;;10.30;9.40;;;5.50;99.90;;;;;;5055153;28;20214;-89
2022/04/20 06:48:29;;;;;;;9.32;8.50;;;5.60;99.90;;;;;;5055461;28;20208;-89
2022/04/20 06:50:57;;;;;;;11.45;10.30;;;5.70;99.90;;;;;;5054947;28;20226;-89
2022/04/20 06:58:58;;;;;;;8.35;7.65;;;5.90;99.90;;;;;;5055110;28;20201;-89
2022/04/20 07:01:26;;;;;;;10.30;9.30;;;6.00;99.90;;;;;;5054499;28;20230;-89
2022/04/20 07:03:55;;;;;;;10.40;9.25;;;6.10;99.90;;;;;;5055107;28;20220;-89
2022/04/20 07:06:23;;;;;;;10.02;9.02;;;6.20;99.90;;;;;;5055315;28;20197;-89
2022/04/20 07:08:52;;;;;;;10.13;9.15;;;6.30;99.90;;;;;;5054892;28;20210;-89
2022/04/20 07:11:22;;;;;;;9.57;8.68;;;6.50;99.90;;;;;;5054400;28;20225;-89
2022/04/20 07:13:51;;;;;;;8.40;7.68;;;6.60;99.90;;;;;;5054715;28;20209;-89
2022/04/20 07:16:19;;;;;;;10.57;9.35;;;6.80;99.90;;;;;;5054739;28;20206;-88
2022/04/20 07:18:48;;;;;;;10.15;8.38;;;7.00;99.90;;;;;;5054811;28;20205;-89
2022/04/20 07:21:16;;;;;;;10.00;9.05;;;7.00;99.90;;;;;;5054279;28;20230;-88
2022/04/20 07:23:45;;;;;;;7.75;7.15;;;7.10;99.90;;;;;;5054956;28;20218;-89
2022/04/20 07:26:13;;;;;;;8.43;7.18;;;7.30;99.90;;;;;;5054439;28;20206;-88
2022/04/20 07:28:43;;;;;;;8.80;7.93;;;7.40;99.90;;;;;;5054728;28;20225;-89
2022/04/20 07:31:11;;;;;;;9.82;7.28;;;7.50;99.90;;;;;;5054200;28;20263;-88
2022/04/20 07:33:40;;;;;;;8.73;7.85;;;7.70;99.90;;;;;;5054379;28;20206;-88
2022/04/20 07:36:08;;;;;;;8.00;7.38;;;7.80;99.90;;;;;;5054479;28;20230;-89
2022/04/20 07:38:38;;;;;;;8.32;7.65;;;7.80;99.90;;;;;;5054471;28;20210;-89
2022/04/20 07:41:07;;;;;;;8.93;8.13;;;7.70;99.90;;;;;;5054020;28;20229;-89
2022/04/20 07:43:36;;;;;;;8.80;7.95;;;7.80;99.90;;;;;;5054165;28;20214;-88
2022/04/20 07:46:06;;;;;;;9.30;8.38;;;8.00;99.90;;;;;;5053836;28;20263;-88
2022/04/20 07:48:35;;;;;;;9.10;8.20;;;8.30;99.90;;;;;;5054016;28;20293;-88
2022/04/20 07:51:03;;;;;;;9.65;8.75;;;8.50;99.90;;;;;;5053496;28;20226;-89
2022/04/20 07:53:31;;;;;;;8.02;7.32;;;8.60;99.90;;;;;;5054018;28;20269;-89
2022/04/20 07:56:00;;;;;;;9.88;8.88;;;8.90;99.90;;;;;;5054117;28;20286;-88
2022/04/20 07:58:28;;;;;;;8.30;7.60;;;8.90;99.90;;;;;;5053824;28;20214;-89
2022/04/20 08:00:57;;;;;;;9.32;8.40;;;9.20;99.90;;;;;;5053550;28;20229;-89
2022/04/20 08:03:28;;;;;;;8.63;7.80;;;9.80;99.90;;;;;;5053997;28;20202;-88
2022/04/20 08:05:59;;;;;;;6.95;6.30;;;10.70;99.90;;;;;;5053817;28;20303;-89
2022/04/20 08:08:27;;;;;;;8.50;7.70;;;11.10;99.90;;;;;;5053871;28;20251;-89
2022/04/20 08:10:56;;;;;;;7.85;7.07;;;11.90;99.90;;;;;;5053357;28;20252;-89
2022/04/20 08:16:10;;;;;;;6.68;6.07;;;13.10;99.90;;;;;;5053545;28;20273;-89
2022/04/20 08:18:40;;;;;;;8.02;7.30;;;13.40;99.90;;;;;;5053554;28;20297;-88
2022/04/20 08:21:12;;;;;;;7.40;6.70;;;13.70;99.90;;;;;;5053346;28;20234;-89
2022/04/20 08:23:41;;;;;;;7.35;6.75;;;12.80;99.90;;;;;;5053407;28;20222;-89
2022/04/20 08:26:09;;;;;;;8.32;7.57;;;12.60;99.90;;;;;;5053498;28;20202;-89
2022/04/20 08:28:38;;;;;;;7.45;6.75;;;12.90;99.90;;;;;;5053384;28;20248;-89
2022/04/20 08:31:06;;;;;;;7.28;6.57;;;13.50;99.90;;;;;;5053396;28;20233;-86
2022/04/20 08:33:35;;;;;;;7.03;6.43;;;14.60;99.90;;;;;;5053303;28;20198;-86
2022/04/20 08:36:05;;;;;;;7.53;6.20;;;15.10;99.90;;;;;;5053183;28;20206;-86
2022/04/20 08:38:34;;;;;;;6.50;5.90;;;16.00;99.90;;;;;;5052663;28;20224;-86
2022/04/20 08:41:03;;;;;;;6.38;5.78;;;16.60;99.90;;;;;;5053162;28;20222;-85
2022/04/20 08:43:33;;;;;;;6.63;5.70;;;17.00;99.90;;;;;;5053087;28;20225;-85
2022/04/20 08:46:02;;;;;;;6.07;5.57;;;18.00;99.60;;;;;;5053090;28;20201;-85
2022/04/20 08:48:30;;;;;;;6.13;5.63;;;19.20;94.20;;;;;;5052912;28;20202;-85
2022/04/20 08:51:03;;;;;;;5.85;5.35;;;19.70;91.30;;;;;;5052437;28;20245;-86
2022/04/20 08:53:33;;;;;;;5.93;5.43;;;20.40;91.00;;;;;;5052661;28;20233;-85
2022/04/20 08:58:49;;;;;;;5.63;5.22;;;19.60;82.20;;;;;;5052768;28;20265;-86
2022/04/20 09:01:21;;;;;;;9.75;5.82;;;18.90;87.00;;;;;;5052466;28;20232;-86
2022/04/20 09:03:50;;;;;;;6.18;5.57;;;19.40;84.80;;;;;;5052548;28;20267;-85
2022/04/20 09:06:19;;;;;;;6.28;5.63;;;20.10;80.00;;;;;;5052588;28;20255;-86
2022/04/20 09:08:49;;;;;;;5.72;5.22;;;21.00;77.40;;;;;;5052863;28;20206;-86
2022/04/20 09:11:18;;;;;;;7.20;5.93;;;21.10;78.30;;;;;;5052726;28;20245;-86
2022/04/20 09:13:47;;;;;;;6.90;6.25;;;20.60;68.90;;;;;;5052503;28;20214;-86
2022/04/20 09:16:15;;;;;;;5.65;5.15;;;20.10;67.70;;;;;;5053182;28;20211;-86
2022/04/20 09:18:44;;;;;;;5.15;4.72;;;20.10;67.50;;;;;;5052777;28;20212;-85
2022/04/20 09:21:15;;;;;;;6.07;5.53;;;19.80;72.40;;;;;;5052195;28;20309;-85
2022/04/20 09:23:44;;;;;;;5.88;5.38;;;20.30;74.20;;;;;;5052217;28;20222;-85
2022/04/20 09:26:16;;;;;;;6.13;5.57;;;20.80;75.90;;;;;;5052636;28;20228;-86
2022/04/20 09:29:05;;;;;;;5.38;4.97;;;21.00;68.50;;;;;;5052464;28;20213;-86
2022/04/20 09:31:43;;;;;;;6.20;5.53;;;20.60;71.40;;;;;;5052704;28;20305;-86
2022/04/20 09:34:35;;;;;;;8.77;5.43;;;19.60;71.50;;;;;;5052511;28;20221;-86
2022/04/20 09:37:16;;;;;;;6.07;5.22;;;19.00;75.40;;;;;;5052394;28;20221;-86
2022/04/20 09:39:47;;;;;;;6.25;5.65;;;19.30;71.90;;;;;;5052620;28;20229;-86
2022/04/20 09:42:18;;;;;;;6.93;5.65;;;20.00;70.40;;;;;;5052335;28;20249;-84
2022/04/20 09:45:05;;;;;;;5.90;5.30;;;20.80;75.00;;;;;;5052423;28;20202;-86
2022/04/20 09:50:25;;;;;;;5.72;5.25;;;21.50;63.30;;;;;;5052114;28;20225;-87
2022/04/20 09:52:55;;;;;;;11.02;5.30;;;20.50;66.30;;;;;;5052852;28;20217;-87
2022/04/20 09:55:29;;;;;;;8.75;6.57;;;19.20;67.00;;;;;;5052684;28;20257;-87
2022/04/20 09:58:17;;;;;;;5.85;5.35;;;18.20;68.90;;;;;;5052314;28;20263;-87
2022/04/20 10:00:47;;;;;;;6.70;5.55;;;17.50;68.00;;;;;;5051671;28;20224;-87
2022/04/20 10:03:25;;;;;;;5.80;5.35;;;16.90;71.30;;;;;;5052200;28;20245;-87
2022/04/20 10:05:54;;;;;;;6.90;5.55;;;16.50;74.60;;;;;;5052071;28;20232;-87
2022/04/20 10:08:23;;;;;;;6.32;5.82;;;16.20;73.20;;;;;;5052162;28;20206;-87
2022/04/20 10:10:54;;;;;;;6.70;6.10;;;15.70;75.20;;;;;;5052071;28;20279;-86
2022/04/20 10:13:28;;;;;;;6.38;5.78;;;15.40;76.40;;;;;;5052140;28;20204;-87
2022/04/20 10:16:05;;;;;;;5.30;4.90;;;15.70;78.90;;;;;;5054749;28;20252;-85
2022/04/20 10:18:37;;;;;;;5.78;5.25;;;16.60;76.30;;;;;;5055689;28;20221;-87
2022/04/20 10:21:08;;;;;;;6.47;5.47;;;17.00;72.60;;;;;;5055641;28;20233;-86
2022/04/20 10:23:39;;;;;;;6.30;5.47;;;16.90;70.60;;;;;;5055984;28;20280;-87
2022/04/20 10:26:09;;;;;;;5.68;5.05;;;17.20;69.70;;;;;;5055914;28;20244;-87
2022/04/20 10:28:47;;;;;;;5.32;4.90;;;16.70;72.00;;;;;;5056035;28;20308;-87
2022/04/20 10:31:21;;;;;;;5.82;5.32;;;15.90;66.60;;;;;;5055292;28;20225;-86
2022/04/20 10:33:49;;;;;;;5.75;4.82;;;15.40;69.60;;;;;;5056080;28;20209;-87
2022/04/20 10:36:28;;;;;;;5.32;4.85;;;15.30;70.00;;;;;;5055549;28;20293;-87
2022/04/20 10:39:20;;;;;;;6.03;5.13;;;16.00;76.20;;;;;;5055530;28;20273;-87
2022/04/20 10:42:17;;;;;;;7.90;5.43;;;17.10;73.40;;;;;;5055461;28;20280;-87
2022/04/20 10:45:08;;;;;;;6.32;5.78;;;17.30;73.40;;;;;;5055330;28;20198;-87
2022/04/20 10:47:38;;;;;;;5.18;4.78;;;17.00;68.40;;;;;;5050928;28;20209;-87
2022/04/20 10:50:18;;;;;;;4.95;4.55;;;16.80;68.40;;;;;;5055134;28;20296;-88
2022/04/20 10:52:50;;;;;;;4.85;4.47;;;15.90;65.60;;;;;;5054881;28;20313;-88
2022/04/20 10:55:23;;;;;;;6.78;6.18;;;15.50;68.30;;;;;;5054759;28;20202;-88
2022/04/20 10:57:56;;;;;;;8.60;5.38;;;15.20;69.80;;;;;;5054975;28;20271;-88
2022/04/20 11:00:34;;;;;;;5.63;5.13;;;15.00;72.40;;;;;;5054758;28;20265;-88
2022/04/20 11:03:04;;;;;;;5.18;4.57;;;14.90;74.20;;;;;;5055015;28;20217;-88
2022/04/20 11:05:33;;;;;;;5.22;4.80;;;14.80;75.10;;;;;;5054964;28;20263;-89
2022/04/20 11:08:06;;;;;;;5.47;4.97;;;14.40;73.70;;;;;;5054658;28;20232;-89
2022/04/20 11:10:40;;;;;;;6.32;5.68;;;14.30;72.90;;;;;;5054214;28;20297;-89
2022/04/20 11:19:11;;;;;;;6.03;5.53;;;14.10;76.00;;;;;;5054165;28;20268;-89
2022/04/20 11:21:53;;;;;;;8.38;6.20;;;13.80;74.40;;;;;;5054027;28;20313;-88
2022/04/20 11:24:29;;;;;;;15.93;6.07;;;13.60;74.80;;;;;;5053958;28;20308;-89
2022/04/20 11:26:58;;;;;;;8.55;6.22;;;13.50;77.30;;;;;;5053882;28;20204;-89
2022/04/20 11:29:29;;;;;;;6.60;5.95;;;13.60;76.50;;;;;;5054343;28;20201;-89
2022/04/20 11:31:59;;;;;;;6.13;5.53;;;13.90;74.80;;;;;;5054189;28;20222;-89
2022/04/20 11:34:33;;;;;;;5.22;4.70;;;14.50;74.10;;;;;;5053830;28;20205;-88
2022/04/20 11:37:02;;;;;;;7.45;5.25;;;15.10;72.50;;;;;;5054231;28;20221;-89
2022/04/20 11:39:32;;;;;;;5.82;5.25;;;15.50;75.80;;;;;;5054321;28;20202;-89
2022/04/20 11:42:02;;;;;;;5.88;4.80;;;15.40;68.60;;;;;;5053870;28;20222;-88
2022/04/20 11:44:32;;;;;;;4.93;4.50;;;15.20;72.40;;;;;;5053555;28;20293;-89
2022/04/20 11:47:06;;;;;;;5.47;4.97;;;15.00;75.30;;;;;;5053963;28;20293;-88
2022/04/20 11:49:36;;;;;;;7.22;5.80;;;15.00;75.10;;;;;;5053928;28;20229;-88
2022/04/20 11:52:08;;;;;;;6.43;5.47;;;15.40;76.60;;;;;;5053644;28;20229;-88
2022/04/20 11:54:38;;;;;;;5.68;5.18;;;16.20;71.60;;;;;;5053807;28;20244;-88
2022/04/20 11:57:08;;;;;;;5.75;5.20;;;16.80;69.70;;;;;;5053801;28;20210;-88
2022/04/20 11:59:43;;;;;;;5.57;5.07;;;16.60;68.60;;;;;;5053817;28;20201;-89
2022/04/20 12:02:15;;;;;;;4.60;4.18;;;16.50;72.90;;;;;;5053447;28;20250;-88
2022/04/20 12:04:44;;;;;;;6.07;5.38;;;16.70;68.90;;;;;;5053276;28;20228;-88
2022/04/20 12:07:14;;;;;;;6.05;5.05;;;17.00;72.20;;;;;;5053966;28;20205;-89
2022/04/20 12:09:53;;;;;;;6.43;5.05;;;17.70;66.90;;;;;;5053952;28;20205;-88
2022/04/20 12:12:22;;;;;;;6.03;4.97;;;18.40;68.40;;;;;;5052944;28;20217;-87
2022/04/20 12:14:53;;;;;;;5.75;5.22;;;19.00;73.00;;;;;;5053483;28;20198;-88
2022/04/20 12:17:24;;;;;;;4.85;4.55;;;19.80;64.00;;;;;;5053328;28;20201;-88
2022/04/20 12:19:53;;;;;;;5.25;4.75;;;20.00;66.10;;;;;;5053019;28;20308;-88
2022/04/20 12:22:22;;;;;;;5.18;4.78;;;20.20;67.10;;;;;;5052692;28;20236;-88
2022/04/20 12:25:06;;;;;;;5.35;4.85;;;20.10;60.20;;;;;;5053043;28;20264;-88
2022/04/20 12:27:52;;;;;;;6.97;4.28;;;19.80;61.20;;;;;;5053191;28;20208;-88
2022/04/20 12:30:35;;;;;;;4.93;4.53;;;18.90;59.20;;;;;;5053145;28;20205;-88
2022/04/20 12:33:08;;;;;;;6.55;5.80;;;18.40;62.90;;;;;;5051152;28;20215;-89
2022/04/20 12:35:37;;;;;;;5.97;4.60;;;17.80;62.30;;;;;;5052987;28;20270;-89
2022/04/20 12:38:08;;;;;;;5.65;4.90;;;17.20;66.20;;;;;;5052608;28;20209;-89
2022/04/20 12:40:37;;;;;;;7.47;4.72;;;17.20;68.50;;;;;;5052524;28;20242;-89
2022/04/20 12:43:07;;;;;;;4.97;4.57;;;17.60;67.80;;;;;;5052745;28;20255;-89
2022/04/20 12:45:38;;;;;;;4.75;4.35;;;18.10;67.10;;;;;;5052601;28;20221;-88
2022/04/20 12:48:11;;;;;;;13.27;4.68;;;18.50;67.60;;;;;;5052968;28;20205;-89
2022/04/20 12:50:40;;;;;;;4.60;3.85;;;19.20;65.80;;;;;;5052965;28;20202;-88
2022/04/20 12:53:09;;;;;;;4.80;4.20;;;19.80;62.40;;;;;;5052971;28;20236;-88
2022/04/20 13:04:12;;;;;;;5.93;4.40;;;18.20;64.50;;;;;;5052499;28;20236;-89
2022/04/20 13:06:41;;;;;;;4.38;3.97;;;17.70;63.80;;;;;;5052624;28;20263;-88
2022/04/20 13:09:09;;;;;;;4.40;4.05;;;17.50;60.40;;;;;;5052440;28;20225;-89
2022/04/20 13:11:38;;;;;;;4.30;3.97;;;17.60;61.40;;;;;;5052489;28;20248;-89
2022/04/20 13:14:07;;;;;;;5.82;3.85;;;17.80;63.40;;;;;;5052511;28;20225;-89
2022/04/20 13:16:35;;;;;;;4.40;4.00;;;18.10;63.90;;;;;;5052420;28;20206;-88
2022/04/20 13:19:04;;;;;;;4.75;4.32;;;18.30;64.20;;;;;;5052322;28;20300;-88
2022/04/20 13:21:33;;;;;;;3.63;3.40;;;18.40;59.80;;;;;;5051920;28;20246;-89
2022/04/20 13:24:02;;;;;;;4.20;3.90;;;18.40;61.60;;;;;;5052157;28;20321;-89
2022/04/20 13:29:16;;;;;;;4.50;4.15;;;18.60;64.10;;;;;;5052208;28;20284;-91
2022/04/20 13:31:45;;;;;;;4.50;4.10;;;18.90;60.80;;;;;;5051630;28;20286;-90
2022/04/20 13:34:14;;;;;;;4.68;4.28;;;19.00;58.30;;;;;;5052177;28;20212;-90
2022/04/20 13:36:44;;;;;;;4.20;3.90;;;19.10;57.20;;;;;;5052307;28;20237;-90
2022/04/20 13:39:12;;;;;;;4.72;4.32;;;18.90;57.70;;;;;;5052329;28;20230;-89
2022/04/20 13:41:40;;;;;;;3.17;2.95;;;17.90;56.20;;;;;;5051835;28;20329;-89
2022/04/20 13:44:09;;;;;;;3.90;3.60;;;18.00;60.40;;;;;;5052197;28;20304;-89
2022/04/20 13:46:37;;;;;;;3.42;3.10;;;18.10;60.40;;;;;;5052098;28;20205;-89
2022/04/20 13:49:06;;;;;;;3.85;3.55;;;18.20;59.60;;;;;;5053570;28;20292;-89